sensor_id;sensor_type;location;lat;lon;timestamp;pressure;altitude;pressure_sealevel;temperature;humidity
38303;BME280;24103;42.454;27.400;2023-05-23T00:00:58;100291.94;;;16.81;100.00
38303;BME280;24103;42.454;27.400;2023-05-23T00:03:24;100286.22;;;16.85;100.00
38303;BME280;24103;42.454;27.400;2023-05-23T00:05:50;100285.28;;;16.86;100.00
38303;BME280;24103;42.454;27.400;2023-05-23T00:08:16;100291.44;;;16.87;100.00
38303;BME280;24103;42.454;27.400;2023-05-23T00:10:42;100288.91;;;16.85;100.00
38303;BME280;24103;42.454;27.400;2023-05-23T00:13:08;100279.78;;;16.88;100.00
38303;BME280;24103;42.454;27.400;2023-05-23T00:15:34;100279.50;;;16.91;100.00
38303;BME280;24103;42.454;27.400;2023-05-23T00:18:02;100287.97;;;16.96;100.00
38303;BME280;24103;42.454;27.400;2023-05-23T00:20:28;100276.25;;;16.87;100.00
38303;BME280;24103;42.454;27.400;2023-05-23T00:22:54;100280.56;;;16.79;100.00
38303;BME280;24103;42.454;27.400;2023-05-23T00:25:23;100271.59;;;16.80;100.00
38303;BME280;24103;42.454;27.400;2023-05-23T00:27:49;100266.53;;;16.76;100.00
38303;BME280;24103;42.454;27.400;2023-05-23T00:30:15;100261.47;;;16.73;100.00
38303;BME280;24103;42.454;27.400;2023-05-23T00:32:40;100268.31;;;16.76;100.00
38303;BME280;24103;42.454;27.400;2023-05-23T00:35:06;100265.38;;;16.79;100.00
38303;BME280;24103;42.454;27.400;2023-05-23T00:37:32;100259.50;;;16.75;100.00
38303;BME280;24103;42.454;27.400;2023-05-23T00:39:58;100257.66;;;16.76;100.00
38303;BME280;24103;42.454;27.400;2023-05-23T00:42:24;100259.22;;;16.79;100.00
38303;BME280;24103;42.454;27.400;2023-05-23T00:44:50;100258.66;;;16.75;100.00
38303;BME280;24103;42.454;27.400;2023-05-23T00:47:16;100257.63;;;16.66;100.00
38303;BME280;24103;42.454;27.400;2023-05-23T00:49:42;100255.41;;;16.71;100.00
38303;BME280;24103;42.454;27.400;2023-05-23T00:52:08;100260.44;;;16.65;100.00
38303;BME280;24103;42.454;27.400;2023-05-23T00:54:35;100257.66;;;16.76;100.00
38303;BME280;24103;42.454;27.400;2023-05-23T00:57:01;100264.00;;;16.75;100.00
38303;BME280;24103;42.454;27.400;2023-05-23T00:59:27;100265.59;;;16.87;100.00
38303;BME280;24103;42.454;27.400;2023-05-23T01:01:55;100258.44;;;16.88;100.00
38303;BME280;24103;42.454;27.400;2023-05-23T01:04:21;100262.25;;;16.95;100.00
38303;BME280;24103;42.454;27.400;2023-05-23T01:06:53;100256.63;;;16.98;100.00
38303;BME280;24103;42.454;27.400;2023-05-23T01:09:20;100255.50;;;17.01;100.00
38303;BME280;24103;42.454;27.400;2023-05-23T01:14:58;100260.16;;;17.08;100.00
38303;BME280;24103;42.454;27.400;2023-05-23T01:17:33;100261.16;;;17.17;100.00
38303;BME280;24103;42.454;27.400;2023-05-23T01:28:39;100267.19;;;17.09;100.00
38303;BME280;24103;42.454;27.400;2023-05-23T01:31:09;100264.81;;;17.16;100.00
38303;BME280;24103;42.454;27.400;2023-05-23T01:33:37;100261.41;;;17.14;100.00
38303;BME280;24103;42.454;27.400;2023-05-23T01:36:04;100258.88;;;17.12;100.00
38303;BME280;24103;42.454;27.400;2023-05-23T01:38:30;100259.22;;;17.19;100.00
38303;BME280;24103;42.454;27.400;2023-05-23T01:40:56;100259.22;;;17.19;100.00
38303;BME280;24103;42.454;27.400;2023-05-23T01:43:22;100260.06;;;17.39;100.00
38303;BME280;24103;42.454;27.400;2023-05-23T01:45:49;100251.50;;;17.36;100.00
38303;BME280;24103;42.454;27.400;2023-05-23T01:48:17;100259.34;;;17.37;100.00
38303;BME280;24103;42.454;27.400;2023-05-23T01:50:43;100257.66;;;17.46;100.00
38303;BME280;24103;42.454;27.400;2023-05-23T01:53:13;100254.28;;;17.54;100.00
38303;BME280;24103;42.454;27.400;2023-05-23T01:55:40;100249.25;;;17.50;100.00
38303;BME280;24103;42.454;27.400;2023-05-23T01:58:06;100260.91;;;17.40;100.00
38303;BME280;24103;42.454;27.400;2023-05-23T02:00:32;100262.00;;;17.37;100.00
38303;BME280;24103;42.454;27.400;2023-05-23T02:02:58;100262.00;;;17.37;100.00
38303;BME280;24103;42.454;27.400;2023-05-23T02:05:23;100259.06;;;17.40;100.00
38303;BME280;24103;42.454;27.400;2023-05-23T02:07:49;100265.09;;;17.52;100.00
38303;BME280;24103;42.454;27.400;2023-05-23T02:10:14;100261.19;;;17.46;100.00
38303;BME280;24103;42.454;27.400;2023-05-23T02:12:40;100262.75;;;17.49;100.00
38303;BME280;24103;42.454;27.400;2023-05-23T02:15:06;100260.19;;;17.47;100.00
38303;BME280;24103;42.454;27.400;2023-05-23T02:17:32;100258.50;;;17.46;100.00
38303;BME280;24103;42.454;27.400;2023-05-23T02:19:57;100261.72;;;17.50;100.00
38303;BME280;24103;42.454;27.400;2023-05-23T02:22:23;100269.06;;;17.48;100.00
38303;BME280;24103;42.454;27.400;2023-05-23T02:24:50;100260.91;;;17.40;100.00
38303;BME280;24103;42.454;27.400;2023-05-23T02:27:15;100269.31;;;17.35;100.00
38303;BME280;24103;42.454;27.400;2023-05-23T02:29:41;100268.47;;;17.25;100.00
38303;BME280;24103;42.454;27.400;2023-05-23T02:32:07;100272.69;;;17.18;100.00
38303;BME280;24103;42.454;27.400;2023-05-23T02:34:32;100267.63;;;17.15;100.00
38303;BME280;24103;42.454;27.400;2023-05-23T02:36:58;100264.22;;;17.12;100.00
38303;BME280;24103;42.454;27.400;2023-05-23T02:39:23;100268.03;;;17.10;100.00
38303;BME280;24103;42.454;27.400;2023-05-23T02:41:49;100270.00;;;17.08;100.00
38303;BME280;24103;42.454;27.400;2023-05-23T02:44:14;100259.47;;;17.06;100.00
38303;BME280;24103;42.454;27.400;2023-05-23T02:46:40;100267.91;;;17.11;100.00
38303;BME280;24103;42.454;27.400;2023-05-23T02:49:05;100261.28;;;17.06;100.00
38303;BME280;24103;42.454;27.400;2023-05-23T02:51:31;100264.66;;;16.98;100.00
38303;BME280;24103;42.454;27.400;2023-05-23T02:53:56;100267.72;;;16.93;100.00
38303;BME280;24103;42.454;27.400;2023-05-23T02:56:22;100262.50;;;16.92;100.00
38303;BME280;24103;42.454;27.400;2023-05-23T02:58:47;100261.41;;;16.94;100.00
38303;BME280;24103;42.454;27.400;2023-05-23T03:01:13;100268.97;;;16.99;100.00
38303;BME280;24103;42.454;27.400;2023-05-23T03:03:38;100263.78;;;16.88;100.00
38303;BME280;24103;42.454;27.400;2023-05-23T03:06:06;100258.59;;;16.86;100.00
38303;BME280;24103;42.454;27.400;2023-05-23T03:08:31;100263.28;;;16.83;100.00
38303;BME280;24103;42.454;27.400;2023-05-23T03:10:57;100261.75;;;16.80;100.00
38303;BME280;24103;42.454;27.400;2023-05-23T03:13:22;100252.31;;;16.76;100.00
38303;BME280;24103;42.454;27.400;2023-05-23T03:15:48;100250.34;;;16.68;100.00
38303;BME280;24103;42.454;27.400;2023-05-23T03:18:13;100261.19;;;16.76;100.00
38303;BME280;24103;42.454;27.400;2023-05-23T03:20:39;100257.81;;;16.84;100.00
38303;BME280;24103;42.454;27.400;2023-05-23T03:23:04;100254.78;;;16.89;100.00
38303;BME280;24103;42.454;27.400;2023-05-23T03:25:30;100257.47;;;16.99;100.00
38303;BME280;24103;42.454;27.400;2023-05-23T03:27:55;100259.59;;;17.05;100.00
38303;BME280;24103;42.454;27.400;2023-05-23T03:30:21;100256.94;;;17.05;100.00
38303;BME280;24103;42.454;27.400;2023-05-23T03:32:46;100263.41;;;17.12;100.00
38303;BME280;24103;42.454;27.400;2023-05-23T03:35:12;100257.78;;;17.15;100.00
38303;BME280;24103;42.454;27.400;2023-05-23T03:37:37;100254.28;;;17.24;100.00
38303;BME280;24103;42.454;27.400;2023-05-23T03:40:03;100260.75;;;17.22;100.00
38303;BME280;24103;42.454;27.400;2023-05-23T03:42:29;100252.19;;;17.28;100.00
38303;BME280;24103;42.454;27.400;2023-05-23T03:44:54;100260.06;;;17.29;100.00
38303;BME280;24103;42.454;27.400;2023-05-23T03:47:21;100259.50;;;17.36;100.00
38303;BME280;24103;42.454;27.400;2023-05-23T03:49:48;100265.97;;;17.43;100.00
38303;BME280;24103;42.454;27.400;2023-05-23T03:52:13;100270.03;;;17.47;100.00
38303;BME280;24103;42.454;27.400;2023-05-23T03:54:39;100274.81;;;17.53;100.00
38303;BME280;24103;42.454;27.400;2023-05-23T03:57:04;100271.72;;;17.58;100.00
38303;BME280;24103;42.454;27.400;2023-05-23T03:59:30;100261.31;;;17.55;100.00
38303;BME280;24103;42.454;27.400;2023-05-23T04:01:55;100272.41;;;17.60;100.00
38303;BME280;24103;42.454;27.400;2023-05-23T04:04:23;100284.53;;;17.64;100.00
38303;BME280;24103;42.454;27.400;2023-05-23T04:06:49;100283.38;;;17.66;100.00
38303;BME280;24103;42.454;27.400;2023-05-23T04:09:15;100285.34;;;17.74;100.00
38303;BME280;24103;42.454;27.400;2023-05-23T04:11:42;100280.69;;;17.86;100.00
38303;BME280;24103;42.454;27.400;2023-05-23T04:14:07;100285.09;;;17.87;100.00
38303;BME280;24103;42.454;27.400;2023-05-23T04:16:33;100282.84;;;17.92;100.00
38303;BME280;24103;42.454;27.400;2023-05-23T04:19:00;100283.25;;;17.78;100.00
38303;BME280;24103;42.454;27.400;2023-05-23T04:21:26;100285.34;;;17.74;100.00
38303;BME280;24103;42.454;27.400;2023-05-23T04:23:52;100285.78;;;17.79;100.00
38303;BME280;24103;42.454;27.400;2023-05-23T04:26:18;100281.28;;;17.90;100.00
38303;BME280;24103;42.454;27.400;2023-05-23T04:28:46;100288.19;;;17.92;100.00
38303;BME280;24103;42.454;27.400;2023-05-23T04:31:13;100284.38;;;17.95;100.00
38303;BME280;24103;42.454;27.400;2023-05-23T04:33:38;100285.66;;;18.00;100.00
38303;BME280;24103;42.454;27.400;2023-05-23T04:36:04;100293.66;;;18.00;100.00
38303;BME280;24103;42.454;27.400;2023-05-23T04:38:33;100295.03;;;18.04;100.00
38303;BME280;24103;42.454;27.400;2023-05-23T04:40:58;100297.41;;;18.17;100.00
38303;BME280;24103;42.454;27.400;2023-05-23T04:43:24;100288.28;;;18.20;100.00
38303;BME280;24103;42.454;27.400;2023-05-23T04:45:51;100288.13;;;18.21;100.00
38303;BME280;24103;42.454;27.400;2023-05-23T04:48:20;100281.22;;;18.29;100.00
38303;BME280;24103;42.454;27.400;2023-05-23T04:50:49;100286.28;;;18.32;100.00
38303;BME280;24103;42.454;27.400;2023-05-23T04:53:15;100289.94;;;18.31;100.00
38303;BME280;24103;42.454;27.400;2023-05-23T04:55:41;100281.16;;;18.48;100.00
38303;BME280;24103;42.454;27.400;2023-05-23T04:58:06;100288.47;;;18.46;100.00
38303;BME280;24103;42.454;27.400;2023-05-23T05:00:32;100291.09;;;18.56;100.00
38303;BME280;24103;42.454;27.400;2023-05-23T05:02:57;100276.25;;;18.71;100.00
38303;BME280;24103;42.454;27.400;2023-05-23T05:05:23;100271.16;;;18.78;100.00
38303;BME280;24103;42.454;27.400;2023-05-23T05:07:48;100277.47;;;18.87;100.00
38303;BME280;24103;42.454;27.400;2023-05-23T05:10:14;100277.28;;;18.98;100.00
38303;BME280;24103;42.454;27.400;2023-05-23T05:12:44;100275.47;;;19.17;100.00
38303;BME280;24103;42.454;27.400;2023-05-23T05:15:16;100280.53;;;19.38;99.32
38303;BME280;24103;42.454;27.400;2023-05-23T05:17:43;100264.16;;;19.23;100.00
38303;BME280;24103;42.454;27.400;2023-05-23T05:20:09;100275.41;;;19.44;99.95
38303;BME280;24103;42.454;27.400;2023-05-23T05:22:38;100281.22;;;19.58;97.70
38303;BME280;24103;42.454;27.400;2023-05-23T05:25:08;100273.47;;;19.73;97.81
38303;BME280;24103;42.454;27.400;2023-05-23T05:27:34;100279.16;;;19.87;97.25
38303;BME280;24103;42.454;27.400;2023-05-23T05:30:05;100284.72;;;19.94;95.31
38303;BME280;24103;42.454;27.400;2023-05-23T05:32:31;100283.66;;;20.05;94.16
38303;BME280;24103;42.454;27.400;2023-05-23T05:34:58;100268.91;;;20.09;93.33
38303;BME280;24103;42.454;27.400;2023-05-23T05:37:24;100281.91;;;20.22;92.09
38303;BME280;24103;42.454;27.400;2023-05-23T05:39:50;100278.69;;;20.18;90.70
38303;BME280;24103;42.454;27.400;2023-05-23T05:42:15;100286.84;;;20.09;90.24
38303;BME280;24103;42.454;27.400;2023-05-23T05:44:41;100279.00;;;19.89;89.04
38303;BME280;24103;42.454;27.400;2023-05-23T05:47:06;100287.56;;;19.93;88.94
38303;BME280;24103;42.454;27.400;2023-05-23T05:49:31;100287.16;;;20.05;90.17
38303;BME280;24103;42.454;27.400;2023-05-23T05:51:57;100277.41;;;20.31;87.91
38303;BME280;24103;42.454;27.400;2023-05-23T05:54:22;100278.78;;;20.61;86.70
38303;BME280;24103;42.454;27.400;2023-05-23T05:56:48;100288.25;;;20.47;84.02
38303;BME280;24103;42.454;27.400;2023-05-23T05:59:13;100298.38;;;20.27;85.40
38303;BME280;24103;42.454;27.400;2023-05-23T06:01:39;100285.88;;;20.44;84.42
38303;BME280;24103;42.454;27.400;2023-05-23T06:04:05;100295.81;;;20.52;84.62
38303;BME280;24103;42.454;27.400;2023-05-23T06:06:30;100294.59;;;20.38;84.57
38303;BME280;24103;42.454;27.400;2023-05-23T06:08:56;100300.03;;;20.02;86.08
38303;BME280;24103;42.454;27.400;2023-05-23T06:11:22;100305.78;;;20.07;88.01
38303;BME280;24103;42.454;27.400;2023-05-23T06:13:47;100305.63;;;20.35;85.83
38303;BME280;24103;42.454;27.400;2023-05-23T06:16:13;100297.88;;;20.58;82.84
38303;BME280;24103;42.454;27.400;2023-05-23T06:18:39;100301.53;;;20.83;82.28
38303;BME280;24103;42.454;27.400;2023-05-23T06:21:05;100303.47;;;21.07;79.84
38303;BME280;24103;42.454;27.400;2023-05-23T06:23:30;100283.03;;;21.23;78.81
38303;BME280;24103;42.454;27.400;2023-05-23T06:25:57;100288.34;;;21.06;79.26
38303;BME280;24103;42.454;27.400;2023-05-23T06:28:23;100300.63;;;21.01;79.55
38303;BME280;24103;42.454;27.400;2023-05-23T06:30:48;100295.69;;;20.88;79.06
38303;BME280;24103;42.454;27.400;2023-05-23T06:33:15;100292.81;;;20.81;81.40
38303;BME280;24103;42.454;27.400;2023-05-23T06:35:40;100296.72;;;20.95;81.41
38303;BME280;24103;42.454;27.400;2023-05-23T06:38:06;100291.22;;;21.05;81.37
38303;BME280;24103;42.454;27.400;2023-05-23T06:40:31;100289.91;;;21.17;77.92
38303;BME280;24103;42.454;27.400;2023-05-23T06:42:57;100294.97;;;21.45;77.42
38303;BME280;24103;42.454;27.400;2023-05-23T06:45:22;100284.13;;;21.71;75.10
38303;BME280;24103;42.454;27.400;2023-05-23T06:47:47;100285.63;;;21.57;74.83
38303;BME280;24103;42.454;27.400;2023-05-23T06:50:13;100284.44;;;21.93;73.21
38303;BME280;24103;42.454;27.400;2023-05-23T06:52:39;100275.84;;;22.14;72.94
38303;BME280;24103;42.454;27.400;2023-05-23T06:55:07;100269.75;;;22.44;70.06
38303;BME280;24103;42.454;27.400;2023-05-23T06:57:32;100266.47;;;22.74;68.15
38303;BME280;24103;42.454;27.400;2023-05-23T06:59:58;100268.00;;;22.99;65.92
38303;BME280;24103;42.454;27.400;2023-05-23T07:02:23;100263.09;;;23.34;65.46
38303;BME280;24103;42.454;27.400;2023-05-23T07:04:49;100267.47;;;23.12;62.97
38303;BME280;24103;42.454;27.400;2023-05-23T07:07:14;100277.03;;;22.19;70.23
38303;BME280;24103;42.454;27.400;2023-05-23T07:09:39;100290.00;;;21.99;73.09
38303;BME280;24103;42.454;27.400;2023-05-23T07:12:05;100287.50;;;21.89;74.66
38303;BME280;24103;42.454;27.400;2023-05-23T07:14:31;100287.34;;;21.91;73.50
38303;BME280;24103;42.454;27.400;2023-05-23T07:16:56;100291.84;;;22.07;74.29
38303;BME280;24103;42.454;27.400;2023-05-23T07:19:22;100288.63;;;22.12;74.03
38303;BME280;24103;42.454;27.400;2023-05-23T07:24:13;100293.72;;;21.82;75.29
38303;BME280;24103;42.454;27.400;2023-05-23T07:26:38;100290.84;;;21.92;75.81
38303;BME280;24103;42.454;27.400;2023-05-23T07:29:04;100290.84;;;21.75;77.04
38303;BME280;24103;42.454;27.400;2023-05-23T07:31:30;100297.72;;;21.53;80.15
38303;BME280;24103;42.454;27.400;2023-05-23T07:33:55;100299.25;;;21.56;76.68
38303;BME280;24103;42.454;27.400;2023-05-23T07:36:21;100301.91;;;21.47;77.66
38303;BME280;24103;42.454;27.400;2023-05-23T07:38:46;100294.03;;;21.54;77.99
38303;BME280;24103;42.454;27.400;2023-05-23T07:41:11;100293.03;;;21.80;78.54
38303;BME280;24103;42.454;27.400;2023-05-23T07:43:37;100301.94;;;21.72;80.79
38303;BME280;24103;42.454;27.400;2023-05-23T07:46:03;100299.41;;;21.70;83.13
38303;BME280;24103;42.454;27.400;2023-05-23T07:48:28;100303.25;;;22.09;81.33
38303;BME280;24103;42.454;27.400;2023-05-23T07:50:54;100300.38;;;22.19;78.74
38303;BME280;24103;42.454;27.400;2023-05-23T07:53:20;100308.31;;;22.12;80.92
38303;BME280;24103;42.454;27.400;2023-05-23T07:55:46;100305.59;;;22.45;80.58
38303;BME280;24103;42.454;27.400;2023-05-23T07:58:12;100291.78;;;23.27;76.30
38303;BME280;24103;42.454;27.400;2023-05-23T08:00:37;100285.75;;;23.95;70.74
38303;BME280;24103;42.454;27.400;2023-05-23T08:03:03;100280.75;;;24.21;67.63
38303;BME280;24103;42.454;27.400;2023-05-23T08:05:28;100284.47;;;24.20;67.83
38303;BME280;24103;42.454;27.400;2023-05-23T08:07:54;100288.94;;;24.13;67.95
38303;BME280;24103;42.454;27.400;2023-05-23T08:10:20;100292.78;;;24.19;68.98
38303;BME280;24103;42.454;27.400;2023-05-23T08:12:45;100284.63;;;24.72;66.61
38303;BME280;24103;42.454;27.400;2023-05-23T08:15:11;100280.84;;;25.24;63.71
38303;BME280;24103;42.454;27.400;2023-05-23T08:17:36;100276.63;;;25.15;64.01
38303;BME280;24103;42.454;27.400;2023-05-23T08:20:02;100267.34;;;25.24;62.75
38303;BME280;24103;42.454;27.400;2023-05-23T08:22:29;100271.00;;;25.53;60.82
38303;BME280;24103;42.454;27.400;2023-05-23T08:24:54;100262.94;;;25.38;58.47
38303;BME280;24103;42.454;27.400;2023-05-23T08:27:20;100264.50;;;25.11;60.56
38303;BME280;24103;42.454;27.400;2023-05-23T08:29:45;100276.00;;;24.53;60.78
38303;BME280;24103;42.454;27.400;2023-05-23T08:32:11;100277.66;;;23.95;63.64
38303;BME280;24103;42.454;27.400;2023-05-23T08:34:36;100287.22;;;23.74;65.75
38303;BME280;24103;42.454;27.400;2023-05-23T08:37:02;100293.34;;;23.22;68.73
38303;BME280;24103;42.454;27.400;2023-05-23T08:39:27;100305.03;;;22.66;73.15
38303;BME280;24103;42.454;27.400;2023-05-23T08:41:53;100306.84;;;22.74;74.85
38303;BME280;24103;42.454;27.400;2023-05-23T08:44:18;100304.00;;;23.15;74.16
38303;BME280;24103;42.454;27.400;2023-05-23T08:46:44;100294.97;;;23.77;69.78
38303;BME280;24103;42.454;27.400;2023-05-23T08:49:12;100286.03;;;23.77;68.58
38303;BME280;24103;42.454;27.400;2023-05-23T08:51:42;100283.47;;;23.83;68.72
38303;BME280;24103;42.454;27.400;2023-05-23T08:54:08;100290.75;;;23.83;68.65
38303;BME280;24103;42.454;27.400;2023-05-23T08:56:37;100286.56;;;23.72;69.51
38303;BME280;24103;42.454;27.400;2023-05-23T08:59:03;100301.91;;;23.25;71.29
38303;BME280;24103;42.454;27.400;2023-05-23T09:01:30;100312.16;;;22.42;75.70
38303;BME280;24103;42.454;27.400;2023-05-23T09:03:58;100313.88;;;21.86;82.28
38303;BME280;24103;42.454;27.400;2023-05-23T09:06:29;100322.28;;;21.83;84.32
38303;BME280;24103;42.454;27.400;2023-05-23T09:08:55;100334.53;;;22.26;84.63
38303;BME280;24103;42.454;27.400;2023-05-23T09:11:21;100318.84;;;23.03;79.22
38303;BME280;24103;42.454;27.400;2023-05-23T09:13:48;100307.63;;;23.53;74.16
38303;BME280;24103;42.454;27.400;2023-05-23T09:16:15;100297.66;;;23.31;72.78
38303;BME280;24103;42.454;27.400;2023-05-23T09:18:43;100300.00;;;23.34;73.58
38303;BME280;24103;42.454;27.400;2023-05-23T09:21:09;100302.72;;;23.57;72.04
38303;BME280;24103;42.454;27.400;2023-05-23T09:23:36;100297.66;;;23.54;72.55
38303;BME280;24103;42.454;27.400;2023-05-23T09:26:08;100298.69;;;23.76;71.63
38303;BME280;24103;42.454;27.400;2023-05-23T09:28:35;100295.00;;;24.30;68.40
38303;BME280;24103;42.454;27.400;2023-05-23T09:31:05;100295.19;;;24.28;66.78
38303;BME280;24103;42.454;27.400;2023-05-23T09:33:47;100296.66;;;24.01;67.71
38303;BME280;24103;42.454;27.400;2023-05-23T09:36:14;100295.16;;;23.52;70.09
38303;BME280;24103;42.454;27.400;2023-05-23T09:38:41;100317.53;;;23.07;73.73
38303;BME280;24103;42.454;27.400;2023-05-23T09:41:07;100324.63;;;22.35;78.51
38303;BME280;24103;42.454;27.400;2023-05-23T09:43:33;100321.09;;;21.77;84.58
38303;BME280;24103;42.454;27.400;2023-05-23T09:46:08;100329.50;;;21.15;90.91
38303;BME280;24103;42.454;27.400;2023-05-23T09:48:33;100345.97;;;20.69;100.00
38303;BME280;24103;42.454;27.400;2023-05-23T09:51:03;100366.75;;;20.23;100.00
38303;BME280;24103;42.454;27.400;2023-05-23T09:53:29;100363.78;;;20.26;100.00
38303;BME280;24103;42.454;27.400;2023-05-23T09:56:00;100359.38;;;20.69;100.00
38303;BME280;24103;42.454;27.400;2023-05-23T09:58:26;100350.97;;;21.58;100.00
38303;BME280;24103;42.454;27.400;2023-05-23T10:00:55;100334.13;;;22.71;100.00
38303;BME280;24103;42.454;27.400;2023-05-23T10:03:50;100319.59;;;23.97;87.72
38303;BME280;24103;42.454;27.400;2023-05-23T10:06:22;100311.97;;;24.39;80.43
38303;BME280;24103;42.454;27.400;2023-05-23T10:09:09;100296.38;;;24.64;76.44
38303;BME280;24103;42.454;27.400;2023-05-23T10:14:13;100302.53;;;24.20;74.49
38303;BME280;24103;42.454;27.400;2023-05-23T10:16:54;100293.81;;;24.33;74.62
38303;BME280;24103;42.454;27.400;2023-05-23T10:19:26;100296.25;;;24.87;70.65
38303;BME280;24103;42.454;27.400;2023-05-23T10:21:58;100278.59;;;25.43;64.85
38303;BME280;24103;42.454;27.400;2023-05-23T10:24:25;100268.66;;;25.71;62.35
38303;BME280;24103;42.454;27.400;2023-05-23T10:26:53;100270.28;;;26.16;64.10
38303;BME280;24103;42.454;27.400;2023-05-23T10:29:22;100258.47;;;26.58;60.58
38303;BME280;24103;42.454;27.400;2023-05-23T10:31:49;100258.75;;;26.70;57.21
38303;BME280;24103;42.454;27.400;2023-05-23T10:34:43;100262.41;;;26.21;57.75
38303;BME280;24103;42.454;27.400;2023-05-23T10:37:45;100253.91;;;25.96;59.79
38303;BME280;24103;42.454;27.400;2023-05-23T10:43:17;100269.56;;;25.57;60.08
38303;BME280;24103;42.454;27.400;2023-05-23T10:45:45;100269.97;;;24.51;62.61
38303;BME280;24103;42.454;27.400;2023-05-23T10:48:20;100287.19;;;23.82;69.69
38303;BME280;24103;42.454;27.400;2023-05-23T10:51:04;100296.31;;;23.35;73.48
38303;BME280;24103;42.454;27.400;2023-05-23T10:53:30;100319.31;;;22.67;82.47
38303;BME280;24103;42.454;27.400;2023-05-23T10:55:56;100329.47;;;21.49;96.08
38303;BME280;24103;42.454;27.400;2023-05-23T10:58:22;100360.59;;;20.31;100.00
38303;BME280;24103;42.454;27.400;2023-05-23T11:01:03;100387.31;;;19.32;100.00
38303;BME280;24103;42.454;27.400;2023-05-23T11:03:33;100389.38;;;18.83;100.00
38303;BME280;24103;42.454;27.400;2023-05-23T11:06:03;100396.59;;;18.53;100.00
38303;BME280;24103;42.454;27.400;2023-05-23T11:08:39;100394.25;;;18.21;100.00
38303;BME280;24103;42.454;27.400;2023-05-23T11:11:07;100401.97;;;17.95;100.00
38303;BME280;24103;42.454;27.400;2023-05-23T11:16:28;100372.56;;;17.75;100.00
38303;BME280;24103;42.454;27.400;2023-05-23T11:24:22;100351.91;;;18.64;100.00
38303;BME280;24103;42.454;27.400;2023-05-23T11:26:57;100358.00;;;19.03;100.00
38303;BME280;24103;42.454;27.400;2023-05-23T11:29:29;100345.06;;;19.44;100.00
38303;BME280;24103;42.454;27.400;2023-05-23T11:31:55;100347.94;;;19.97;100.00
38303;BME280;24103;42.454;27.400;2023-05-23T11:34:22;100351.16;;;20.44;100.00
38303;BME280;24103;42.454;27.400;2023-05-23T11:36:53;100341.00;;;20.83;100.00
38303;BME280;24103;42.454;27.400;2023-05-23T11:39:19;100336.28;;;20.85;100.00
38303;BME280;24103;42.454;27.400;2023-05-23T11:42:01;100332.88;;;21.09;100.00
38303;BME280;24103;42.454;27.400;2023-05-23T11:44:27;100323.00;;;21.26;100.00
38303;BME280;24103;42.454;27.400;2023-05-23T11:47:00;100320.25;;;21.68;100.00
38303;BME280;24103;42.454;27.400;2023-05-23T11:49:36;100316.53;;;22.35;100.00
38303;BME280;24103;42.454;27.400;2023-05-23T11:52:05;100310.69;;;22.79;98.05
38303;BME280;24103;42.454;27.400;2023-05-23T11:54:32;100303.66;;;23.10;93.07
38303;BME280;24103;42.454;27.400;2023-05-23T11:56:57;100293.72;;;23.18;86.12
38303;BME280;24103;42.454;27.400;2023-05-23T11:59:25;100289.53;;;23.39;86.01
38303;BME280;24103;42.454;27.400;2023-05-23T12:01:51;100286.28;;;23.90;82.82
38303;BME280;24103;42.454;27.400;2023-05-23T12:04:17;100285.88;;;24.16;79.32
38303;BME280;24103;42.454;27.400;2023-05-23T12:06:45;100289.88;;;24.35;77.02
38303;BME280;24103;42.454;27.400;2023-05-23T12:09:12;100285.97;;;24.08;74.06
38303;BME280;24103;42.454;27.400;2023-05-23T12:11:38;100291.91;;;24.03;76.71
38303;BME280;24103;42.454;27.400;2023-05-23T12:14:06;100299.13;;;23.88;78.58
38303;BME280;24103;42.454;27.400;2023-05-23T12:16:33;100308.19;;;23.17;81.01
38303;BME280;24103;42.454;27.400;2023-05-23T12:18:59;100311.59;;;22.55;85.77
38303;BME280;24103;42.454;27.400;2023-05-23T12:21:26;100330.34;;;22.07;89.58
38303;BME280;24103;42.454;27.400;2023-05-23T12:24:14;100333.75;;;21.26;96.20
38303;BME280;24103;42.454;27.400;2023-05-23T12:26:48;100350.09;;;20.64;100.00
38303;BME280;24103;42.454;27.400;2023-05-23T12:29:13;100356.03;;;20.23;100.00
38303;BME280;24103;42.454;27.400;2023-05-23T12:31:39;100378.81;;;19.83;100.00
38303;BME280;24103;42.454;27.400;2023-05-23T12:34:04;100390.41;;;19.00;100.00
38303;BME280;24103;42.454;27.400;2023-05-23T12:36:30;100404.94;;;18.21;100.00
38303;BME280;24103;42.454;27.400;2023-05-23T12:39:04;100398.84;;;17.80;100.00
38303;BME280;24103;42.454;27.400;2023-05-23T12:41:32;100361.00;;;17.75;100.00
38303;BME280;24103;42.454;27.400;2023-05-23T12:43:59;100375.38;;;17.74;100.00
38303;BME280;24103;42.454;27.400;2023-05-23T12:46:26;100374.63;;;17.42;100.00
38303;BME280;24103;42.454;27.400;2023-05-23T12:48:52;100367.97;;;17.27;100.00
38303;BME280;24103;42.454;27.400;2023-05-23T12:51:18;100374.03;;;17.39;100.00
38303;BME280;24103;42.454;27.400;2023-05-23T12:53:44;100365.06;;;17.49;100.00
38303;BME280;24103;42.454;27.400;2023-05-23T12:56:10;100371.81;;;17.54;100.00
38303;BME280;24103;42.454;27.400;2023-05-23T12:58:35;100372.13;;;17.50;100.00
38303;BME280;24103;42.454;27.400;2023-05-23T13:01:01;100367.66;;;17.80;100.00
38303;BME280;24103;42.454;27.400;2023-05-23T13:03:28;100361.19;;;17.93;100.00